createdAt,value
2019-02-21T00:00:24.697Z,25.20
2019-02-21T00:02:54.267Z,27.87
2019-02-21T00:05:23.736Z,31.93
2019-02-21T00:07:53.117Z,31.97
2019-02-21T00:10:22.534Z,31.83
2019-02-21T00:13:05.232Z,30.67
2019-02-21T00:15:37.509Z,32.37
2019-02-21T00:18:06.909Z,27.07
2019-02-21T00:20:36.349Z,27.47
2019-02-21T00:23:07.572Z,31.17
2019-02-21T00:25:56.315Z,29.80
2019-02-21T00:28:25.728Z,30.40
2019-02-21T00:30:55.129Z,31.53
2019-02-21T00:33:39.017Z,25.53
2019-02-21T00:36:08.514Z,28.83
2019-02-21T00:38:37.936Z,29.47
2019-02-21T00:41:07.375Z,24.13
2019-02-21T00:43:49.790Z,26.73
2019-02-21T00:46:38.558Z,29.10
2019-02-21T00:49:07.974Z,28.77
2019-02-21T00:51:37.396Z,29.67
2019-02-21T00:54:06.825Z,27.43
2019-02-21T00:56:36.260Z,28.80
2019-02-21T00:59:05.772Z,32.90
2019-02-21T01:01:35.276Z,26.57
2019-02-21T01:04:24.049Z,29.23
2019-02-21T01:06:53.572Z,26.97
2019-02-21T01:09:22.985Z,30.20
2019-02-21T01:11:52.447Z,30.97
2019-02-21T01:14:21.850Z,30.10
2019-02-21T01:16:51.290Z,33.40
2019-02-21T01:19:20.717Z,26.87
2019-02-21T01:21:50.168Z,28.60
2019-02-21T01:24:19.564Z,27.73
2019-02-21T01:26:48.972Z,30.43
2019-02-21T01:29:18.476Z,28.03
2019-02-21T01:31:47.948Z,27.03
2019-02-21T01:34:18.657Z,29.20
2019-02-21T01:37:07.423Z,28.67
2019-02-21T01:39:36.793Z,27.93
2019-02-21T01:42:06.230Z,27.47
2019-02-21T01:44:49.570Z,28.57
2019-02-21T01:47:19.023Z,27.20
2019-02-21T01:49:50.093Z,28.27
2019-02-21T01:52:19.568Z,29.40
2019-02-21T01:54:48.981Z,28.17
2019-02-21T01:57:18.392Z,28.70
2019-02-21T01:59:47.860Z,29.43
2019-02-21T02:02:36.645Z,34.30
2019-02-21T02:05:07.808Z,28.40
2019-02-21T02:07:37.367Z,32.57
2019-02-21T02:10:08.614Z,29.57
2019-02-21T02:12:38.055Z,30.87
2019-02-21T02:15:09.299Z,30.43
2019-02-21T02:17:38.719Z,32.70
2019-02-21T02:20:08.991Z,33.90
2019-02-21T02:22:38.484Z,32.13
2019-02-21T02:25:07.913Z,33.33
2019-02-21T02:27:56.764Z,29.53
2019-02-21T02:30:26.277Z,33.13
2019-02-21T02:32:55.873Z,31.03
2019-02-21T02:35:25.549Z,30.20
2019-02-21T02:37:54.984Z,27.50
2019-02-21T02:40:37.846Z,25.20
2019-02-21T02:43:07.266Z,29.37
2019-02-21T02:45:36.862Z,26.03
2019-02-21T02:48:06.428Z,26.90
2019-02-21T02:50:35.857Z,26.47
2019-02-21T02:53:05.292Z,27.17
2019-02-21T02:55:34.784Z,23.57
2019-02-21T02:58:06.426Z,25.83
2019-02-21T03:00:35.339Z,27.47
2019-02-21T03:03:04.803Z,31.10
2019-02-21T03:05:34.216Z,25.77
2019-02-21T03:08:03.650Z,26.03
2019-02-21T03:10:33.022Z,24.80
2019-02-21T03:13:02.505Z,29.43
2019-02-21T03:15:31.920Z,27.60
2019-02-21T03:18:01.318Z,28.20
2019-02-21T03:20:30.726Z,26.40
2019-02-21T03:23:13.046Z,27.97
2019-02-21T03:25:43.757Z,26.27
2019-02-21T03:28:13.169Z,26.10
2019-02-21T03:30:42.679Z,26.30
2019-02-21T03:33:25.097Z,26.47
2019-02-21T03:35:54.615Z,26.50
2019-02-21T03:38:36.956Z,25.77
2019-02-21T03:41:06.454Z,22.57
2019-02-21T03:43:35.965Z,25.27
2019-02-21T03:46:05.439Z,24.57
2019-02-21T03:48:34.916Z,30.27
2019-02-21T03:51:04.386Z,25.03
2019-02-21T03:53:47.310Z,26.40
2019-02-21T03:56:16.715Z,24.67
2019-02-21T03:58:46.112Z,26.63
2019-02-21T04:01:15.550Z,30.27
2019-02-21T04:03:44.972Z,27.33
2019-02-21T04:06:16.741Z,24.87
2019-02-21T04:08:46.183Z,26.43
2019-02-21T04:11:15.652Z,28.93
2019-02-21T04:13:45.089Z,24.97
2019-02-21T04:16:14.550Z,25.33
2019-02-21T04:18:44.001Z,26.70
2019-02-21T04:21:13.404Z,27.83
2019-02-21T04:23:42.833Z,28.03
2019-02-21T04:26:12.302Z,28.03
2019-02-21T04:28:41.852Z,29.53
2019-02-21T04:31:11.301Z,25.33
2019-02-21T04:33:40.738Z,28.50
2019-02-21T04:36:11.512Z,28.37
2019-02-21T04:38:40.995Z,29.77
2019-02-21T04:41:10.483Z,27.23
2019-02-21T04:43:39.903Z,26.03
2019-02-21T04:46:09.335Z,31.60
2019-02-21T04:48:38.769Z,32.40
2019-02-21T04:51:08.200Z,30.77
2019-02-21T04:53:37.665Z,31.93
2019-02-21T04:56:07.083Z,32.77
2019-02-21T04:58:36.524Z,29.77
2019-02-21T05:01:06.002Z,29.73
2019-02-21T05:03:35.457Z,31.50
2019-02-21T05:06:07.786Z,36.37
2019-02-21T05:08:37.224Z,33.20
2019-02-21T05:11:26.073Z,33.10
2019-02-21T05:14:08.215Z,31.63
2019-02-21T05:16:37.589Z,33.83
2019-02-21T05:19:07.008Z,32.60
2019-02-21T05:21:48.991Z,30.63
2019-02-21T05:24:31.640Z,30.27
2019-02-21T05:27:02.740Z,37.20
2019-02-21T05:29:32.146Z,34.87
2019-02-21T05:32:04.779Z,31.77
2019-02-21T05:34:35.760Z,33.70
2019-02-21T05:37:07.168Z,35.73
2019-02-21T05:39:38.167Z,37.30
2019-02-21T05:42:09.247Z,35.23
2019-02-21T05:44:40.251Z,36.33
2019-02-21T05:47:11.319Z,34.93
2019-02-21T05:49:42.321Z,36.63
2019-02-21T05:52:13.325Z,33.07
2019-02-21T05:54:57.629Z,38.60
2019-02-21T05:57:28.733Z,41.03
2019-02-21T05:59:59.766Z,41.47
2019-02-21T06:02:30.848Z,39.47
2019-02-21T06:05:01.842Z,39.60
2019-02-21T06:07:32.931Z,37.63
2019-02-21T06:10:03.961Z,34.80
2019-02-21T06:12:35.021Z,42.50
2019-02-21T06:15:06.651Z,40.13
2019-02-21T06:17:37.659Z,43.50
2019-02-21T06:20:08.869Z,38.03
2019-02-21T06:22:39.943Z,39.57
2019-02-21T06:25:11.100Z,37.70
2019-02-21T06:27:42.136Z,42.90
2019-02-21T06:30:13.124Z,43.00
2019-02-21T06:32:42.641Z,39.50
2019-02-21T06:35:12.026Z,40.80
2019-02-21T06:37:43.024Z,42.73
2019-02-21T06:40:12.495Z,45.67
2019-02-21T06:42:42.039Z,42.80
2019-02-21T06:45:11.534Z,40.50
2019-02-21T06:47:40.951Z,40.67
2019-02-21T06:50:10.444Z,40.73
2019-02-21T06:52:40.638Z,44.47
2019-02-21T06:55:10.314Z,41.17
2019-02-21T06:57:39.930Z,44.33
2019-02-21T07:00:09.350Z,43.03
2019-02-21T07:02:38.792Z,43.20
2019-02-21T07:05:08.233Z,45.87
2019-02-21T07:07:37.680Z,46.57
2019-02-21T07:10:07.759Z,46.73
2019-02-21T07:12:37.171Z,42.07
2019-02-21T07:15:09.634Z,44.90
2019-02-21T07:17:48.795Z,43.87
2019-02-21T07:20:10.189Z,39.53
2019-02-21T07:22:52.128Z,43.47
2019-02-21T07:25:23.148Z,41.30
2019-02-21T07:27:52.574Z,39.80
2019-02-21T07:30:23.209Z,37.83
2019-02-21T07:32:52.986Z,34.93
2019-02-21T07:35:22.378Z,35.60
2019-02-21T07:37:53.695Z,33.77
2019-02-21T07:40:23.251Z,32.90
2019-02-21T07:42:52.687Z,33.63
2019-02-21T07:45:22.105Z,37.30
2019-02-21T07:47:51.558Z,37.73
2019-02-21T07:50:23.028Z,37.57
2019-02-21T07:53:02.016Z,34.73
2019-02-21T07:55:23.393Z,37.10
2019-02-21T07:57:52.813Z,33.83
2019-02-21T08:00:22.302Z,33.80
2019-02-21T08:02:52.223Z,33.37
2019-02-21T08:05:23.577Z,32.40
2019-02-21T08:07:52.775Z,31.93
2019-02-21T08:10:32.782Z,34.07
2019-02-21T08:12:53.786Z,33.83
2019-02-21T08:15:23.407Z,31.13
2019-02-21T08:17:52.850Z,32.37
2019-02-21T08:20:33.267Z,35.40
2019-02-21T08:22:53.392Z,35.07
2019-02-21T08:25:25.599Z,37.00
2019-02-21T08:27:55.065Z,34.97
2019-02-21T08:30:24.510Z,36.23
2019-02-21T08:33:14.897Z,31.37
2019-02-21T08:35:44.318Z,32.73
2019-02-21T08:38:14.829Z,34.53
2019-02-21T08:40:44.374Z,32.53
2019-02-21T08:43:13.813Z,32.10
2019-02-21T08:45:43.241Z,34.27
2019-02-21T08:48:13.522Z,32.93
2019-02-21T08:50:56.617Z,29.77
2019-02-21T08:53:28.171Z,37.83
2019-02-21T08:55:57.293Z,33.27
2019-02-21T08:58:27.062Z,34.17
2019-02-21T09:00:56.571Z,35.20
2019-02-21T09:03:26.045Z,31.93
2019-02-21T09:05:55.682Z,33.23
2019-02-21T09:08:44.487Z,35.93
2019-02-21T09:11:14.076Z,34.00
2019-02-21T09:13:43.444Z,35.07
2019-02-21T09:16:12.957Z,37.40
2019-02-21T09:18:42.356Z,35.90
2019-02-21T09:21:11.797Z,35.53
2019-02-21T09:23:41.164Z,38.77
2019-02-21T09:26:29.973Z,40.40
2019-02-21T09:28:59.425Z,39.23
2019-02-21T09:31:28.832Z,34.87
2019-02-21T09:33:58.279Z,36.00
2019-02-21T09:36:27.771Z,37.50
2019-02-21T09:38:57.549Z,35.43
2019-02-21T09:41:46.357Z,38.70
2019-02-21T09:44:18.139Z,34.57
2019-02-21T09:46:46.956Z,36.43
2019-02-21T09:49:16.403Z,39.93
2019-02-21T09:51:45.866Z,41.07
2019-02-21T09:54:28.174Z,36.70
2019-02-21T09:56:59.324Z,42.43
2019-02-21T09:59:48.211Z,37.70
2019-02-21T10:02:35.648Z,39.37
2019-02-21T10:05:06.699Z,35.40
2019-02-21T10:07:37.126Z,38.00
2019-02-21T10:10:09.930Z,36.20
2019-02-21T10:12:39.526Z,39.77
2019-02-21T10:15:11.131Z,41.83
2019-02-21T10:17:40.725Z,37.97
2019-02-21T10:20:13.129Z,38.10
2019-02-21T10:22:42.551Z,40.77
2019-02-21T10:25:15.188Z,40.60
2019-02-21T10:27:44.703Z,39.87
2019-02-21T10:30:16.911Z,39.50
2019-02-21T10:32:46.368Z,42.23
2019-02-21T10:35:15.948Z,42.30
2019-02-21T10:37:45.586Z,39.27
2019-02-21T10:40:16.464Z,45.60
2019-02-21T10:42:45.883Z,43.23
2019-02-21T10:45:17.931Z,42.97
2019-02-21T10:47:47.407Z,43.63
2019-02-21T10:50:19.140Z,42.00
2019-02-21T10:53:08.057Z,44.30
2019-02-21T10:55:37.613Z,42.77
2019-02-21T10:58:07.038Z,43.57
2019-02-21T11:00:36.763Z,39.07
2019-02-21T11:03:08.784Z,42.13
2019-02-21T11:05:38.459Z,41.50
2019-02-21T11:08:08.009Z,44.53
2019-02-21T11:10:37.614Z,41.57
2019-02-21T11:13:07.182Z,44.63
2019-02-21T11:15:37.893Z,41.33
2019-02-21T11:18:12.356Z,43.17
2019-02-21T11:20:42.139Z,44.00
2019-02-21T11:23:11.528Z,40.70
2019-02-21T11:25:41.353Z,41.07
2019-02-21T11:28:10.803Z,43.63
2019-02-21T11:30:40.360Z,41.17
2019-02-21T11:33:09.769Z,39.10
2019-02-21T11:35:41.689Z,41.90
2019-02-21T11:38:11.181Z,38.33
2019-02-21T11:40:40.795Z,40.70
2019-02-21T11:43:10.234Z,39.13
2019-02-21T11:45:39.646Z,41.33
2019-02-21T11:48:09.437Z,37.50
2019-02-21T11:50:38.979Z,40.40
2019-02-21T11:53:08.426Z,35.97
2019-02-21T11:55:38.239Z,37.17
2019-02-21T11:58:07.904Z,36.83
2019-02-21T12:00:37.932Z,35.23
2019-02-21T12:03:07.419Z,35.77
2019-02-21T12:05:36.827Z,34.03
2019-02-21T12:08:06.390Z,32.47
2019-02-21T12:10:35.806Z,30.63
2019-02-21T12:13:05.216Z,30.47
2019-02-21T12:15:34.644Z,30.90
2019-02-21T12:18:06.870Z,27.93
2019-02-21T12:20:36.300Z,24.90
2019-02-21T12:23:06.193Z,25.20
2019-02-21T12:25:35.614Z,25.17
2019-02-21T12:28:05.082Z,23.97
2019-02-21T12:30:34.945Z,26.07
2019-02-21T12:33:04.420Z,23.23
2019-02-21T12:35:33.928Z,24.07
2019-02-21T12:38:03.435Z,28.50
2019-02-21T12:40:32.834Z,25.57
2019-02-21T12:43:03.554Z,24.50
2019-02-21T12:45:33.071Z,23.93
2019-02-21T12:48:02.483Z,25.87
2019-02-21T12:50:36.798Z,25.40
2019-02-21T12:53:03.280Z,23.07
2019-02-21T12:55:32.738Z,24.77
2019-02-21T12:58:02.244Z,24.63
2019-02-21T13:00:31.661Z,24.77
2019-02-21T13:03:01.117Z,24.10
2019-02-21T13:05:40.463Z,22.40
2019-02-21T13:08:02.110Z,22.80
2019-02-21T13:10:31.604Z,21.80
2019-02-21T13:13:01.104Z,21.60
2019-02-21T13:15:30.670Z,25.47
2019-02-21T13:18:00.199Z,23.60
2019-02-21T13:20:29.649Z,29.83
2019-02-21T13:22:59.376Z,26.53
2019-02-21T13:25:28.835Z,21.97
2019-02-21T13:27:58.341Z,19.93
2019-02-21T13:30:27.843Z,19.27
2019-02-21T13:32:57.365Z,16.27
2019-02-21T13:35:29.404Z,18.43
2019-02-21T13:37:58.986Z,16.63
2019-02-21T13:40:28.442Z,17.30
2019-02-21T13:42:57.872Z,17.13
2019-02-21T13:45:27.482Z,17.93
2019-02-21T13:47:56.993Z,18.77
2019-02-21T13:50:26.459Z,19.33
2019-02-21T13:52:55.912Z,22.50
2019-02-21T13:55:25.431Z,21.47
2019-02-21T13:57:54.938Z,20.90
2019-02-21T14:00:25.518Z,22.53
2019-02-21T14:02:58.188Z,19.90
2019-02-21T14:05:28.004Z,22.73
2019-02-21T14:07:58.021Z,20.53
2019-02-21T14:10:27.565Z,25.13
2019-02-21T14:12:56.994Z,25.47
2019-02-21T14:15:28.851Z,25.93
2019-02-21T14:17:58.299Z,24.20
2019-02-21T14:20:27.769Z,24.37
2019-02-21T14:22:57.239Z,26.90
2019-02-21T14:25:28.480Z,28.47
2019-02-21T14:27:57.746Z,28.27
2019-02-21T14:30:27.214Z,29.80
2019-02-21T14:32:56.766Z,29.37
2019-02-21T14:35:26.368Z,26.77
2019-02-21T14:37:55.891Z,27.33
2019-02-21T14:40:25.452Z,26.20
2019-02-21T14:42:55.108Z,29.53
2019-02-21T14:45:25.585Z,27.40
2019-02-21T14:47:55.302Z,25.80
2019-02-21T14:50:24.908Z,26.30
2019-02-21T14:52:54.347Z,26.07
2019-02-21T14:55:23.811Z,28.50
2019-02-21T14:57:53.366Z,29.43
2019-02-21T15:00:24.262Z,27.27
2019-02-21T15:02:53.720Z,28.57
2019-02-21T15:05:23.208Z,28.17
2019-02-21T15:07:52.697Z,26.30
2019-02-21T15:10:22.124Z,26.40
2019-02-21T15:12:51.734Z,26.33
2019-02-21T15:15:23.301Z,27.70
2019-02-21T15:18:06.669Z,27.53
2019-02-21T15:20:36.374Z,29.03
2019-02-21T15:22:58.056Z,30.97
2019-02-21T15:25:27.526Z,25.23
2019-02-21T15:27:56.964Z,27.23
2019-02-21T15:30:26.468Z,29.20
2019-02-21T15:32:55.881Z,27.63
2019-02-21T15:35:25.297Z,27.20
2019-02-21T15:37:54.811Z,30.60
2019-02-21T15:40:24.464Z,26.27
2019-02-21T15:42:53.915Z,26.33
2019-02-21T15:45:25.792Z,30.47
2019-02-21T15:47:56.503Z,28.67
2019-02-21T15:50:26.011Z,27.73
2019-02-21T15:52:56.537Z,30.27
2019-02-21T15:55:26.085Z,30.73
2019-02-21T15:58:04.146Z,29.03
2019-02-21T16:00:26.705Z,28.53
2019-02-21T16:02:56.211Z,28.83
2019-02-21T16:05:25.662Z,29.47
2019-02-21T16:07:55.120Z,26.57
2019-02-21T16:10:25.575Z,30.20
2019-02-21T16:12:58.527Z,28.93
2019-02-21T16:15:29.731Z,29.37
2019-02-21T16:17:59.297Z,29.63
2019-02-21T16:20:46.367Z,31.97
2019-02-21T16:23:15.826Z,32.10
2019-02-21T16:25:45.343Z,29.77
2019-02-21T16:28:14.777Z,29.43
2019-02-21T16:30:44.193Z,31.67
2019-02-21T16:33:13.691Z,29.10
2019-02-21T16:35:43.518Z,33.93
2019-02-21T16:38:12.983Z,30.57
2019-02-21T16:40:42.406Z,32.00
2019-02-21T16:43:11.899Z,31.03
2019-02-21T16:45:46.271Z,30.37
2019-02-21T16:48:12.869Z,38.37
2019-02-21T16:50:42.431Z,41.40
2019-02-21T16:53:11.942Z,38.67
2019-02-21T16:55:41.432Z,35.17
2019-02-21T16:58:10.896Z,32.33
2019-02-21T17:00:51.340Z,28.10
2019-02-21T17:03:11.513Z,30.77
2019-02-21T17:05:40.948Z,29.07
2019-02-21T17:08:10.482Z,29.27
2019-02-21T17:10:39.908Z,30.60
2019-02-21T17:13:09.416Z,27.77
2019-02-21T17:15:38.852Z,29.33
2019-02-21T17:18:08.301Z,29.70
2019-02-21T17:20:37.772Z,28.20
2019-02-21T17:23:07.245Z,29.87
2019-02-21T17:25:38.997Z,29.37
2019-02-21T17:28:08.457Z,27.97
2019-02-21T17:30:37.852Z,29.20
2019-02-21T17:33:07.279Z,29.67
2019-02-21T17:35:36.697Z,27.10
2019-02-21T17:38:06.450Z,28.60
2019-02-21T17:40:35.962Z,31.07
2019-02-21T17:43:05.393Z,28.77
2019-02-21T17:45:34.811Z,30.07
2019-02-21T17:48:04.472Z,29.57
2019-02-21T17:50:35.670Z,28.97
2019-02-21T17:53:05.170Z,32.80
2019-02-21T17:55:34.565Z,33.67
2019-02-21T17:58:03.988Z,34.23
2019-02-21T18:00:35.079Z,38.00
2019-02-21T18:03:04.576Z,33.63
2019-02-21T18:05:34.091Z,33.00
2019-02-21T18:08:03.487Z,32.30
2019-02-21T18:10:32.934Z,38.70
2019-02-21T18:13:02.384Z,44.93
2019-02-21T18:15:31.797Z,47.87
2019-02-21T18:18:01.311Z,45.73
2019-02-21T18:20:32.149Z,47.37
2019-02-21T18:23:01.548Z,50.30
2019-02-21T18:25:34.325Z,64.17
2019-02-21T18:28:03.735Z,54.37
2019-02-21T18:30:33.247Z,59.10
2019-02-21T18:33:02.656Z,58.67
2019-02-21T18:35:32.159Z,71.97
2019-02-21T18:38:01.594Z,70.87
2019-02-21T18:40:31.074Z,62.50
2019-02-21T18:43:00.475Z,64.20
2019-02-21T18:45:29.889Z,69.30
2019-02-21T18:47:59.483Z,64.27
2019-02-21T18:50:37.778Z,63.80
2019-02-21T18:53:01.567Z,61.13
2019-02-21T18:55:31.061Z,61.10
2019-02-21T18:58:01.020Z,66.57
2019-02-21T19:00:30.441Z,57.97
2019-02-21T19:02:59.893Z,64.40
2019-02-21T19:05:35.943Z,65.57
2019-02-21T19:08:05.166Z,55.17
2019-02-21T19:10:31.689Z,55.60
2019-02-21T19:13:01.093Z,55.93
2019-02-21T19:15:30.581Z,51.97
2019-02-21T19:18:19.359Z,60.23
2019-02-21T19:20:48.808Z,56.13
2019-02-21T19:23:18.275Z,60.47
2019-02-21T19:25:47.699Z,67.00
2019-02-21T19:28:17.117Z,59.23
2019-02-21T19:31:07.591Z,65.13
2019-02-21T19:33:50.289Z,62.97
2019-02-21T19:36:19.695Z,63.40
2019-02-21T19:38:49.119Z,53.20
2019-02-21T19:41:18.544Z,62.13
2019-02-21T19:43:47.963Z,61.60
2019-02-21T19:46:17.389Z,59.93
2019-02-21T19:48:46.869Z,55.20
2019-02-21T19:51:16.328Z,54.87
2019-02-21T19:53:46.931Z,56.13
2019-02-21T19:56:16.334Z,53.77
2019-02-21T19:58:45.763Z,55.47
2019-02-21T20:01:15.200Z,53.20
2019-02-21T20:03:44.643Z,53.50
2019-02-21T20:06:14.077Z,56.27
2019-02-21T20:08:43.563Z,55.43
2019-02-21T20:11:13.008Z,56.20
2019-02-21T20:13:42.396Z,53.93
2019-02-21T20:16:11.802Z,52.20
2019-02-21T20:18:41.227Z,52.47
2019-02-21T20:21:10.648Z,49.73
2019-02-21T20:23:53.287Z,55.20
2019-02-21T20:26:22.744Z,55.83
2019-02-21T20:28:52.194Z,55.40
2019-02-21T20:31:21.611Z,49.43
2019-02-21T20:33:51.043Z,56.50
2019-02-21T20:36:20.518Z,66.47
2019-02-21T20:38:50.023Z,65.53
2019-02-21T20:41:19.458Z,67.70
2019-02-21T20:43:48.873Z,62.37
2019-02-21T20:46:18.295Z,62.87
2019-02-21T20:48:47.730Z,61.93
2019-02-21T20:51:17.179Z,63.50
2019-02-21T20:53:46.636Z,61.53
2019-02-21T20:56:17.367Z,56.00
2019-02-21T20:58:46.753Z,55.47
2019-02-21T21:01:16.432Z,55.93
2019-02-21T21:03:45.864Z,56.17
2019-02-21T21:06:20.411Z,53.50
2019-02-21T21:08:49.835Z,48.30
2019-02-21T21:11:19.294Z,52.13
2019-02-21T21:13:48.782Z,47.30
2019-02-21T21:16:18.245Z,53.33
2019-02-21T21:18:47.746Z,49.70
2019-02-21T21:21:17.206Z,52.00
2019-02-21T21:23:46.655Z,59.20
2019-02-21T21:26:35.404Z,58.07
2019-02-21T21:29:04.830Z,58.87
2019-02-21T21:31:34.318Z,67.77
2019-02-21T21:34:03.721Z,60.93
2019-02-21T21:36:33.187Z,67.60
2019-02-21T21:39:04.772Z,72.60
2019-02-21T21:41:34.194Z,85.97
2019-02-21T21:44:03.734Z,80.80
2019-02-21T21:46:36.021Z,95.50
2019-02-21T21:49:05.434Z,101.63
2019-02-21T21:51:34.882Z,107.80
2019-02-21T21:54:04.335Z,115.80
2019-02-21T21:56:35.045Z,115.27
2019-02-21T21:59:04.532Z,134.53
2019-02-21T22:01:33.980Z,129.17
2019-02-21T22:04:03.416Z,136.63
2019-02-21T22:06:33.016Z,142.30
2019-02-21T22:09:05.025Z,137.07
2019-02-21T22:11:33.736Z,153.50
2019-02-21T22:14:03.192Z,159.93
2019-02-21T22:16:32.684Z,156.03
2019-02-21T22:19:02.123Z,157.43
2019-02-21T22:21:31.690Z,165.83
2019-02-21T22:24:01.115Z,179.13
2019-02-21T22:26:30.558Z,168.43
2019-02-21T22:29:00.011Z,176.97
2019-02-21T22:31:29.411Z,171.10
2019-02-21T22:33:58.860Z,183.20
2019-02-21T22:36:28.320Z,177.73
2019-02-21T22:39:16.319Z,174.83
2019-02-21T22:41:44.024Z,191.57
2019-02-21T22:44:13.475Z,168.23
2019-02-21T22:46:42.931Z,169.17
2019-02-21T22:49:12.389Z,163.63
2019-02-21T22:51:41.849Z,211.97
2019-02-21T22:54:11.305Z,202.83
2019-02-21T22:56:41.259Z,195.70
2019-02-21T22:59:10.673Z,186.43
2019-02-21T23:01:41.145Z,186.20
2019-02-21T23:04:13.752Z,191.17
2019-02-21T23:06:47.308Z,185.03
2019-02-21T23:09:26.959Z,199.67
2019-02-21T23:11:49.835Z,215.80
2019-02-21T23:14:19.633Z,217.97
2019-02-21T23:16:49.192Z,228.33
2019-02-21T23:19:19.004Z,201.00
2019-02-21T23:21:48.468Z,212.30
2019-02-21T23:24:17.912Z,236.07
2019-02-21T23:26:47.326Z,211.60
2019-02-21T23:29:19.553Z,216.80
2019-02-21T23:31:49.031Z,235.53
2019-02-21T23:34:20.040Z,228.00
2019-02-21T23:36:49.501Z,226.90
2019-02-21T23:39:19.044Z,229.83
2019-02-21T23:41:50.226Z,202.57
2019-02-21T23:44:19.736Z,232.10
2019-02-21T23:46:49.221Z,215.30
2019-02-21T23:49:18.671Z,239.83
2019-02-21T23:51:48.110Z,246.03
2019-02-21T23:54:30.131Z,240.20
2019-02-21T23:57:00.640Z,231.90
2019-02-21T23:59:30.146Z,240.43
